sensor_id;sensor_type;location;lat;lon;timestamp;temperature;humidity
1391;DHT22;690;51.454;7.194;2022-11-21T00:01:20;4.90;1.00
1391;DHT22;690;51.454;7.194;2022-11-21T00:03:47;4.90;1.00
1391;DHT22;690;51.454;7.194;2022-11-21T00:06:14;4.90;1.00
1391;DHT22;690;51.454;7.194;2022-11-21T00:08:43;4.90;99.90
1391;DHT22;690;51.454;7.194;2022-11-21T00:11:10;4.90;99.90
1391;DHT22;690;51.454;7.194;2022-11-21T00:13:37;4.80;1.00
1391;DHT22;690;51.454;7.194;2022-11-21T00:16:05;4.90;1.00
1391;DHT22;690;51.454;7.194;2022-11-21T00:18:32;4.90;99.90
1391;DHT22;690;51.454;7.194;2022-11-21T00:21:03;4.90;99.90
1391;DHT22;690;51.454;7.194;2022-11-21T00:23:31;4.80;99.90
1391;DHT22;690;51.454;7.194;2022-11-21T00:26:02;4.80;99.90
1391;DHT22;690;51.454;7.194;2022-11-21T00:28:29;4.80;1.00
1391;DHT22;690;51.454;7.194;2022-11-21T00:30:56;4.70;99.90
1391;DHT22;690;51.454;7.194;2022-11-21T00:33:23;4.60;99.90
1391;DHT22;690;51.454;7.194;2022-11-21T00:35:50;4.60;99.90
1391;DHT22;690;51.454;7.194;2022-11-21T00:38:17;4.60;1.00
1391;DHT22;690;51.454;7.194;2022-11-21T00:40:44;4.60;1.00
1391;DHT22;690;51.454;7.194;2022-11-21T00:43:12;4.60;1.00
1391;DHT22;690;51.454;7.194;2022-11-21T00:45:39;4.60;1.00
1391;DHT22;690;51.454;7.194;2022-11-21T00:48:06;4.60;1.00
1391;DHT22;690;51.454;7.194;2022-11-21T00:50:33;4.60;1.00
1391;DHT22;690;51.454;7.194;2022-11-21T00:53:00;4.60;1.00
1391;DHT22;690;51.454;7.194;2022-11-21T00:55:27;4.60;1.00
1391;DHT22;690;51.454;7.194;2022-11-21T00:57:53;4.70;1.00
1391;DHT22;690;51.454;7.194;2022-11-21T01:00:23;4.70;1.00
1391;DHT22;690;51.454;7.194;2022-11-21T01:02:50;4.60;1.00
1391;DHT22;690;51.454;7.194;2022-11-21T01:05:17;4.70;1.00
1391;DHT22;690;51.454;7.194;2022-11-21T01:07:44;4.70;1.00
1391;DHT22;690;51.454;7.194;2022-11-21T01:10:11;4.60;99.90
1391;DHT22;690;51.454;7.194;2022-11-21T01:12:38;4.60;99.90
1391;DHT22;690;51.454;7.194;2022-11-21T01:15:06;4.60;99.90
1391;DHT22;690;51.454;7.194;2022-11-21T01:17:34;4.60;99.90
1391;DHT22;690;51.454;7.194;2022-11-21T01:20:01;4.60;1.00
1391;DHT22;690;51.454;7.194;2022-11-21T01:22:28;4.60;1.00
1391;DHT22;690;51.454;7.194;2022-11-21T01:24:55;4.60;1.00
1391;DHT22;690;51.454;7.194;2022-11-21T01:27:21;4.70;1.00
1391;DHT22;690;51.454;7.194;2022-11-21T01:29:49;4.70;99.90
1391;DHT22;690;51.454;7.194;2022-11-21T01:32:17;4.70;99.90
1391;DHT22;690;51.454;7.194;2022-11-21T01:34:45;4.70;99.90
1391;DHT22;690;51.454;7.194;2022-11-21T01:37:12;4.70;99.90
1391;DHT22;690;51.454;7.194;2022-11-21T01:39:39;4.70;99.90
1391;DHT22;690;51.454;7.194;2022-11-21T01:42:06;4.70;99.90
1391;DHT22;690;51.454;7.194;2022-11-21T01:44:47;4.70;99.90
1391;DHT22;690;51.454;7.194;2022-11-21T01:47:15;4.70;99.90
1391;DHT22;690;51.454;7.194;2022-11-21T01:49:42;4.70;99.90
1391;DHT22;690;51.454;7.194;2022-11-21T01:52:13;4.70;99.90
1391;DHT22;690;51.454;7.194;2022-11-21T01:54:43;4.80;99.90
1391;DHT22;690;51.454;7.194;2022-11-21T01:57:13;4.70;99.90
1391;DHT22;690;51.454;7.194;2022-11-21T01:59:44;4.70;99.90
1391;DHT22;690;51.454;7.194;2022-11-21T02:02:13;4.80;99.90
1391;DHT22;690;51.454;7.194;2022-11-21T02:04:42;4.70;99.90
1391;DHT22;690;51.454;7.194;2022-11-21T02:07:12;4.80;99.90
1391;DHT22;690;51.454;7.194;2022-11-21T02:09:41;4.70;99.90
1391;DHT22;690;51.454;7.194;2022-11-21T02:12:15;4.80;99.90
1391;DHT22;690;51.454;7.194;2022-11-21T02:14:44;4.80;99.90
1391;DHT22;690;51.454;7.194;2022-11-21T02:17:10;4.80;99.90
1391;DHT22;690;51.454;7.194;2022-11-21T02:19:43;4.80;99.90
1391;DHT22;690;51.454;7.194;2022-11-21T02:22:19;4.80;99.90
1391;DHT22;690;51.454;7.194;2022-11-21T02:25:02;4.90;99.90
1391;DHT22;690;51.454;7.194;2022-11-21T02:27:30;4.90;99.90
1391;DHT22;690;51.454;7.194;2022-11-21T02:29:57;4.90;99.90
1391;DHT22;690;51.454;7.194;2022-11-21T02:32:31;4.90;99.90
1391;DHT22;690;51.454;7.194;2022-11-21T02:34:58;4.90;99.90
1391;DHT22;690;51.454;7.194;2022-11-21T02:37:25;4.90;99.90
1391;DHT22;690;51.454;7.194;2022-11-21T02:39:52;4.80;99.90
1391;DHT22;690;51.454;7.194;2022-11-21T02:42:25;4.80;99.90
1391;DHT22;690;51.454;7.194;2022-11-21T02:45:00;4.80;99.90
1391;DHT22;690;51.454;7.194;2022-11-21T02:47:27;4.80;99.90
1391;DHT22;690;51.454;7.194;2022-11-21T02:49:59;4.80;99.90
1391;DHT22;690;51.454;7.194;2022-11-21T02:52:28;4.80;99.90
1391;DHT22;690;51.454;7.194;2022-11-21T02:54:54;4.70;99.90
1391;DHT22;690;51.454;7.194;2022-11-21T02:57:23;4.70;99.90
1391;DHT22;690;51.454;7.194;2022-11-21T02:59:49;4.70;99.90
1391;DHT22;690;51.454;7.194;2022-11-21T03:02:16;4.70;99.90
1391;DHT22;690;51.454;7.194;2022-11-21T03:04:43;4.80;99.90
1391;DHT22;690;51.454;7.194;2022-11-21T03:07:10;4.80;99.90
1391;DHT22;690;51.454;7.194;2022-11-21T03:09:37;4.80;99.90
1391;DHT22;690;51.454;7.194;2022-11-21T03:12:05;4.80;99.90
1391;DHT22;690;51.454;7.194;2022-11-21T03:14:35;4.80;99.90
1391;DHT22;690;51.454;7.194;2022-11-21T03:17:03;4.80;99.90
1391;DHT22;690;51.454;7.194;2022-11-21T03:19:30;4.80;99.90
1391;DHT22;690;51.454;7.194;2022-11-21T03:21:56;4.80;99.90
1391;DHT22;690;51.454;7.194;2022-11-21T03:24:23;4.80;99.90
1391;DHT22;690;51.454;7.194;2022-11-21T03:26:50;4.80;99.90
1391;DHT22;690;51.454;7.194;2022-11-21T03:29:17;4.80;99.90
1391;DHT22;690;51.454;7.194;2022-11-21T03:31:45;4.80;99.90
1391;DHT22;690;51.454;7.194;2022-11-21T03:34:12;4.80;99.90
1391;DHT22;690;51.454;7.194;2022-11-21T03:36:39;4.90;99.90
1391;DHT22;690;51.454;7.194;2022-11-21T03:39:06;4.90;99.90
1391;DHT22;690;51.454;7.194;2022-11-21T03:41:33;4.80;99.90
1391;DHT22;690;51.454;7.194;2022-11-21T03:44:02;4.80;99.90
1391;DHT22;690;51.454;7.194;2022-11-21T03:46:31;4.80;99.90
1391;DHT22;690;51.454;7.194;2022-11-21T03:49:00;4.80;99.90
1391;DHT22;690;51.454;7.194;2022-11-21T03:51:27;4.80;99.90
1391;DHT22;690;51.454;7.194;2022-11-21T03:53:54;4.80;99.90
1391;DHT22;690;51.454;7.194;2022-11-21T03:56:21;4.80;99.90
1391;DHT22;690;51.454;7.194;2022-11-21T03:58:49;4.80;99.90
1391;DHT22;690;51.454;7.194;2022-11-21T04:01:16;4.80;99.90
1391;DHT22;690;51.454;7.194;2022-11-21T04:03:43;4.80;99.90
1391;DHT22;690;51.454;7.194;2022-11-21T04:06:14;4.80;99.90
1391;DHT22;690;51.454;7.194;2022-11-21T04:08:41;4.80;99.90
1391;DHT22;690;51.454;7.194;2022-11-21T04:11:09;4.80;99.90
1391;DHT22;690;51.454;7.194;2022-11-21T04:13:36;4.80;99.90
1391;DHT22;690;51.454;7.194;2022-11-21T04:16:03;4.80;99.90
1391;DHT22;690;51.454;7.194;2022-11-21T04:18:30;4.80;99.90
1391;DHT22;690;51.454;7.194;2022-11-21T04:20:58;4.80;99.90
1391;DHT22;690;51.454;7.194;2022-11-21T04:23:26;4.80;99.90
1391;DHT22;690;51.454;7.194;2022-11-21T04:25:54;4.80;99.90
1391;DHT22;690;51.454;7.194;2022-11-21T04:28:21;4.80;99.90
1391;DHT22;690;51.454;7.194;2022-11-21T04:30:48;4.90;99.90
1391;DHT22;690;51.454;7.194;2022-11-21T04:33:16;4.90;99.90
1391;DHT22;690;51.454;7.194;2022-11-21T04:35:44;4.90;99.90
1391;DHT22;690;51.454;7.194;2022-11-21T04:38:12;4.90;99.90
1391;DHT22;690;51.454;7.194;2022-11-21T04:40:42;4.90;99.90
1391;DHT22;690;51.454;7.194;2022-11-21T04:43:08;4.90;99.90
1391;DHT22;690;51.454;7.194;2022-11-21T04:45:35;4.90;99.90
1391;DHT22;690;51.454;7.194;2022-11-21T04:48:02;4.80;99.90
1391;DHT22;690;51.454;7.194;2022-11-21T04:50:29;4.80;99.90
1391;DHT22;690;51.454;7.194;2022-11-21T04:52:56;4.80;99.90
1391;DHT22;690;51.454;7.194;2022-11-21T04:55:25;4.80;99.90
1391;DHT22;690;51.454;7.194;2022-11-21T04:57:54;4.80;99.90
1391;DHT22;690;51.454;7.194;2022-11-21T05:00:21;4.80;99.90
1391;DHT22;690;51.454;7.194;2022-11-21T05:02:48;4.90;99.90
1391;DHT22;690;51.454;7.194;2022-11-21T05:05:15;4.80;99.90
1391;DHT22;690;51.454;7.194;2022-11-21T05:07:42;4.80;99.90
1391;DHT22;690;51.454;7.194;2022-11-21T05:10:09;4.80;99.90
1391;DHT22;690;51.454;7.194;2022-11-21T05:12:36;4.90;99.90
1391;DHT22;690;51.454;7.194;2022-11-21T05:15:21;4.80;99.90
1391;DHT22;690;51.454;7.194;2022-11-21T05:17:48;4.90;99.90
1391;DHT22;690;51.454;7.194;2022-11-21T05:20:15;4.80;99.90
1391;DHT22;690;51.454;7.194;2022-11-21T05:22:43;4.80;99.90
1391;DHT22;690;51.454;7.194;2022-11-21T05:25:10;4.80;99.90
1391;DHT22;690;51.454;7.194;2022-11-21T05:27:37;4.80;99.90
1391;DHT22;690;51.454;7.194;2022-11-21T05:30:04;4.90;99.90
1391;DHT22;690;51.454;7.194;2022-11-21T05:32:33;4.90;99.90
1391;DHT22;690;51.454;7.194;2022-11-21T05:34:59;4.90;99.90
1391;DHT22;690;51.454;7.194;2022-11-21T05:37:26;4.80;99.90
1391;DHT22;690;51.454;7.194;2022-11-21T05:39:53;4.80;99.90
1391;DHT22;690;51.454;7.194;2022-11-21T05:42:20;4.80;99.90
1391;DHT22;690;51.454;7.194;2022-11-21T05:45:08;4.80;99.90
1391;DHT22;690;51.454;7.194;2022-11-21T05:47:35;4.80;99.90
1391;DHT22;690;51.454;7.194;2022-11-21T05:50:03;4.90;99.90
1391;DHT22;690;51.454;7.194;2022-11-21T05:52:30;4.90;99.90
1391;DHT22;690;51.454;7.194;2022-11-21T05:54:56;4.90;99.90
1391;DHT22;690;51.454;7.194;2022-11-21T05:57:24;5.00;99.90
1391;DHT22;690;51.454;7.194;2022-11-21T05:59:50;5.10;99.90
1391;DHT22;690;51.454;7.194;2022-11-21T06:02:17;5.10;99.90
1391;DHT22;690;51.454;7.194;2022-11-21T06:05:03;5.10;99.90
1391;DHT22;690;51.454;7.194;2022-11-21T06:07:30;5.20;99.90
1391;DHT22;690;51.454;7.194;2022-11-21T06:09:57;5.20;99.90
1391;DHT22;690;51.454;7.194;2022-11-21T06:12:24;5.20;99.90
1391;DHT22;690;51.454;7.194;2022-11-21T06:14:51;5.20;99.90
1391;DHT22;690;51.454;7.194;2022-11-21T06:17:18;5.30;99.90
1391;DHT22;690;51.454;7.194;2022-11-21T06:19:45;5.40;99.90
1391;DHT22;690;51.454;7.194;2022-11-21T06:22:13;5.50;99.90
1391;DHT22;690;51.454;7.194;2022-11-21T06:24:40;5.60;99.90
1391;DHT22;690;51.454;7.194;2022-11-21T06:27:07;5.60;99.90
1391;DHT22;690;51.454;7.194;2022-11-21T06:29:33;5.50;99.90
1391;DHT22;690;51.454;7.194;2022-11-21T06:32:00;5.50;99.90
1391;DHT22;690;51.454;7.194;2022-11-21T06:34:27;5.50;99.90
1391;DHT22;690;51.454;7.194;2022-11-21T06:36:54;5.50;99.90
1391;DHT22;690;51.454;7.194;2022-11-21T06:39:22;5.50;99.90
1391;DHT22;690;51.454;7.194;2022-11-21T06:41:49;5.60;99.90
1391;DHT22;690;51.454;7.194;2022-11-21T06:44:16;5.60;99.90
1391;DHT22;690;51.454;7.194;2022-11-21T06:46:43;5.60;99.90
1391;DHT22;690;51.454;7.194;2022-11-21T06:49:10;5.60;99.90
1391;DHT22;690;51.454;7.194;2022-11-21T06:51:37;5.60;99.90
1391;DHT22;690;51.454;7.194;2022-11-21T06:54:04;5.60;99.90
1391;DHT22;690;51.454;7.194;2022-11-21T06:56:32;5.70;99.90
1391;DHT22;690;51.454;7.194;2022-11-21T06:58:59;5.70;99.90
1391;DHT22;690;51.454;7.194;2022-11-21T07:01:26;5.70;99.90
1391;DHT22;690;51.454;7.194;2022-11-21T07:03:53;5.70;99.90
1391;DHT22;690;51.454;7.194;2022-11-21T07:06:20;5.70;99.90
1391;DHT22;690;51.454;7.194;2022-11-21T07:08:47;5.70;99.90
1391;DHT22;690;51.454;7.194;2022-11-21T07:11:14;5.80;99.90
1391;DHT22;690;51.454;7.194;2022-11-21T07:13:43;5.80;99.90
1391;DHT22;690;51.454;7.194;2022-11-21T07:16:10;5.80;99.90
1391;DHT22;690;51.454;7.194;2022-11-21T07:18:39;5.80;99.90
1391;DHT22;690;51.454;7.194;2022-11-21T07:21:07;5.90;99.90
1391;DHT22;690;51.454;7.194;2022-11-21T07:23:34;5.90;99.90
1391;DHT22;690;51.454;7.194;2022-11-21T07:26:02;5.90;99.90
1391;DHT22;690;51.454;7.194;2022-11-21T07:28:29;5.90;99.90
1391;DHT22;690;51.454;7.194;2022-11-21T07:30:59;5.90;99.90
1391;DHT22;690;51.454;7.194;2022-11-21T07:33:26;6.00;99.90
1391;DHT22;690;51.454;7.194;2022-11-21T07:35:54;6.00;99.90
1391;DHT22;690;51.454;7.194;2022-11-21T07:38:21;6.00;99.90
1391;DHT22;690;51.454;7.194;2022-11-21T07:40:48;6.10;99.90
1391;DHT22;690;51.454;7.194;2022-11-21T07:43:16;6.10;99.90
1391;DHT22;690;51.454;7.194;2022-11-21T07:45:43;6.10;99.90
1391;DHT22;690;51.454;7.194;2022-11-21T07:48:11;6.10;99.90
1391;DHT22;690;51.454;7.194;2022-11-21T07:50:39;6.20;99.90
1391;DHT22;690;51.454;7.194;2022-11-21T07:53:08;6.20;99.90
1391;DHT22;690;51.454;7.194;2022-11-21T07:55:35;6.20;99.90
1391;DHT22;690;51.454;7.194;2022-11-21T07:58:03;6.30;99.90
1391;DHT22;690;51.454;7.194;2022-11-21T08:00:32;6.30;99.90
1391;DHT22;690;51.454;7.194;2022-11-21T08:03:00;6.30;99.90
1391;DHT22;690;51.454;7.194;2022-11-21T08:05:28;6.30;99.90
1391;DHT22;690;51.454;7.194;2022-11-21T08:07:55;6.40;99.90
1391;DHT22;690;51.454;7.194;2022-11-21T08:10:21;6.40;99.90
1391;DHT22;690;51.454;7.194;2022-11-21T08:12:48;6.40;99.90
1391;DHT22;690;51.454;7.194;2022-11-21T08:15:15;6.40;99.90
1391;DHT22;690;51.454;7.194;2022-11-21T08:17:42;6.40;99.90
1391;DHT22;690;51.454;7.194;2022-11-21T08:20:10;6.40;99.90
1391;DHT22;690;51.454;7.194;2022-11-21T08:22:38;6.30;99.90
1391;DHT22;690;51.454;7.194;2022-11-21T08:25:07;6.40;99.90
1391;DHT22;690;51.454;7.194;2022-11-21T08:27:35;6.40;99.90
1391;DHT22;690;51.454;7.194;2022-11-21T08:30:04;6.40;1.00
1391;DHT22;690;51.454;7.194;2022-11-21T08:32:31;6.40;1.00
1391;DHT22;690;51.454;7.194;2022-11-21T08:34:58;6.40;99.90
1391;DHT22;690;51.454;7.194;2022-11-21T08:37:26;6.40;1.00
1391;DHT22;690;51.454;7.194;2022-11-21T08:39:55;6.40;1.00
1391;DHT22;690;51.454;7.194;2022-11-21T08:42:23;6.50;1.00
1391;DHT22;690;51.454;7.194;2022-11-21T08:44:50;6.60;1.00
1391;DHT22;690;51.454;7.194;2022-11-21T08:47:17;6.70;1.00
1391;DHT22;690;51.454;7.194;2022-11-21T08:49:45;6.70;1.00
1391;DHT22;690;51.454;7.194;2022-11-21T08:52:12;6.80;1.00
1391;DHT22;690;51.454;7.194;2022-11-21T08:54:39;6.90;1.00
1391;DHT22;690;51.454;7.194;2022-11-21T08:57:07;6.90;1.00
1391;DHT22;690;51.454;7.194;2022-11-21T08:59:34;7.00;1.00
1391;DHT22;690;51.454;7.194;2022-11-21T09:02:01;7.00;1.00
1391;DHT22;690;51.454;7.194;2022-11-21T09:04:27;7.10;1.00
1391;DHT22;690;51.454;7.194;2022-11-21T09:06:54;7.20;1.00
1391;DHT22;690;51.454;7.194;2022-11-21T09:09:21;7.20;1.00
1391;DHT22;690;51.454;7.194;2022-11-21T09:11:48;7.20;99.90
1391;DHT22;690;51.454;7.194;2022-11-21T09:14:16;7.20;99.90
1391;DHT22;690;51.454;7.194;2022-11-21T09:17:01;7.30;99.90
1391;DHT22;690;51.454;7.194;2022-11-21T09:19:45;7.30;99.90
1391;DHT22;690;51.454;7.194;2022-11-21T09:22:12;7.30;99.90
1391;DHT22;690;51.454;7.194;2022-11-21T09:24:39;7.30;99.90
1391;DHT22;690;51.454;7.194;2022-11-21T09:27:06;7.30;99.90
1391;DHT22;690;51.454;7.194;2022-11-21T09:29:34;7.40;1.00
1391;DHT22;690;51.454;7.194;2022-11-21T09:32:01;7.40;1.00
1391;DHT22;690;51.454;7.194;2022-11-21T09:34:28;7.40;99.90
1391;DHT22;690;51.454;7.194;2022-11-21T09:36:56;7.40;99.90
1391;DHT22;690;51.454;7.194;2022-11-21T09:39:22;7.40;99.90
1391;DHT22;690;51.454;7.194;2022-11-21T09:42:03;7.50;99.90
1391;DHT22;690;51.454;7.194;2022-11-21T09:44:53;7.50;99.90
1391;DHT22;690;51.454;7.194;2022-11-21T09:47:26;7.50;1.00
1391;DHT22;690;51.454;7.194;2022-11-21T09:49:57;7.50;1.00
1391;DHT22;690;51.454;7.194;2022-11-21T09:52:31;7.60;1.00
1391;DHT22;690;51.454;7.194;2022-11-21T09:55:00;7.60;1.00
1391;DHT22;690;51.454;7.194;2022-11-21T09:57:29;7.60;99.90
1391;DHT22;690;51.454;7.194;2022-11-21T09:59:58;7.70;99.90
1391;DHT22;690;51.454;7.194;2022-11-21T10:02:26;7.70;99.90
1391;DHT22;690;51.454;7.194;2022-11-21T10:04:54;7.70;99.90
1391;DHT22;690;51.454;7.194;2022-11-21T10:07:27;7.70;99.90
1391;DHT22;690;51.454;7.194;2022-11-21T10:10:15;7.70;99.90
1391;DHT22;690;51.454;7.194;2022-11-21T10:12:51;7.70;99.90
1391;DHT22;690;51.454;7.194;2022-11-21T10:15:34;7.70;99.90
1391;DHT22;690;51.454;7.194;2022-11-21T10:18:33;7.70;99.90
1391;DHT22;690;51.454;7.194;2022-11-21T10:21:11;7.70;1.00
1391;DHT22;690;51.454;7.194;2022-11-21T10:24:08;7.70;1.00
1391;DHT22;690;51.454;7.194;2022-11-21T10:26:43;7.70;99.90
1391;DHT22;690;51.454;7.194;2022-11-21T10:29:17;7.70;99.90
1391;DHT22;690;51.454;7.194;2022-11-21T10:31:47;7.70;1.00
1391;DHT22;690;51.454;7.194;2022-11-21T10:34:18;7.80;1.00
1391;DHT22;690;51.454;7.194;2022-11-21T10:36:49;7.80;1.00
1391;DHT22;690;51.454;7.194;2022-11-21T10:39:19;7.90;1.00
1391;DHT22;690;51.454;7.194;2022-11-21T10:41:50;7.90;1.00
1391;DHT22;690;51.454;7.194;2022-11-21T10:44:24;7.90;1.00
1391;DHT22;690;51.454;7.194;2022-11-21T10:47:15;8.00;1.00
1391;DHT22;690;51.454;7.194;2022-11-21T10:50:00;7.90;1.00
1391;DHT22;690;51.454;7.194;2022-11-21T10:52:31;7.90;1.00
1391;DHT22;690;51.454;7.194;2022-11-21T10:55:08;7.90;1.00
1391;DHT22;690;51.454;7.194;2022-11-21T10:57:42;8.00;1.00
1391;DHT22;690;51.454;7.194;2022-11-21T11:00:16;8.00;1.00
1391;DHT22;690;51.454;7.194;2022-11-21T11:03:01;8.10;1.00
1391;DHT22;690;51.454;7.194;2022-11-21T11:05:30;8.20;1.00
1391;DHT22;690;51.454;7.194;2022-11-21T11:07:59;8.20;1.00
1391;DHT22;690;51.454;7.194;2022-11-21T11:10:27;8.20;1.00
1391;DHT22;690;51.454;7.194;2022-11-21T11:12:55;8.30;1.00
1391;DHT22;690;51.454;7.194;2022-11-21T11:15:53;8.30;1.00
1391;DHT22;690;51.454;7.194;2022-11-21T11:18:22;8.40;1.00
1391;DHT22;690;51.454;7.194;2022-11-21T11:20:50;8.50;1.00
1391;DHT22;690;51.454;7.194;2022-11-21T11:23:24;8.70;1.00
1391;DHT22;690;51.454;7.194;2022-11-21T11:25:53;8.90;1.00
1391;DHT22;690;51.454;7.194;2022-11-21T11:28:20;9.00;1.00
1391;DHT22;690;51.454;7.194;2022-11-21T11:30:49;9.20;1.00
1391;DHT22;690;51.454;7.194;2022-11-21T11:33:33;9.30;1.00
1391;DHT22;690;51.454;7.194;2022-11-21T11:36:13;9.30;1.00
1391;DHT22;690;51.454;7.194;2022-11-21T11:38:43;9.40;1.00
1391;DHT22;690;51.454;7.194;2022-11-21T11:41:21;9.50;1.00
1391;DHT22;690;51.454;7.194;2022-11-21T11:43:56;9.60;1.00
1391;DHT22;690;51.454;7.194;2022-11-21T11:46:49;9.70;1.00
1391;DHT22;690;51.454;7.194;2022-11-21T11:49:44;9.80;1.00
1391;DHT22;690;51.454;7.194;2022-11-21T11:52:32;9.80;1.00
1391;DHT22;690;51.454;7.194;2022-11-21T11:55:05;9.90;1.00
1391;DHT22;690;51.454;7.194;2022-11-21T11:57:34;9.90;1.00
1391;DHT22;690;51.454;7.194;2022-11-21T12:00:12;10.00;1.00
1391;DHT22;690;51.454;7.194;2022-11-21T12:02:50;10.10;1.00
1391;DHT22;690;51.454;7.194;2022-11-21T12:05:23;10.10;1.00
1391;DHT22;690;51.454;7.194;2022-11-21T12:08:02;10.20;1.00
1391;DHT22;690;51.454;7.194;2022-11-21T12:10:34;10.20;1.00
1391;DHT22;690;51.454;7.194;2022-11-21T12:13:23;10.30;1.00
1391;DHT22;690;51.454;7.194;2022-11-21T12:15:54;10.30;1.00
1391;DHT22;690;51.454;7.194;2022-11-21T12:18:31;10.40;1.00
1391;DHT22;690;51.454;7.194;2022-11-21T12:21:07;10.40;1.00
1391;DHT22;690;51.454;7.194;2022-11-21T12:23:40;10.40;1.00
1391;DHT22;690;51.454;7.194;2022-11-21T12:26:32;10.50;1.00
1391;DHT22;690;51.454;7.194;2022-11-21T12:29:22;10.50;99.90
1391;DHT22;690;51.454;7.194;2022-11-21T12:32:05;10.60;1.00
1391;DHT22;690;51.454;7.194;2022-11-21T12:37:38;10.60;99.90
1391;DHT22;690;51.454;7.194;2022-11-21T12:40:18;10.60;99.90
1391;DHT22;690;51.454;7.194;2022-11-21T12:43:04;10.60;99.90
1391;DHT22;690;51.454;7.194;2022-11-21T12:45:35;10.60;99.90
1391;DHT22;690;51.454;7.194;2022-11-21T12:48:17;10.60;99.90
1391;DHT22;690;51.454;7.194;2022-11-21T12:51:19;10.60;99.90
1391;DHT22;690;51.454;7.194;2022-11-21T12:54:22;10.60;99.90
1391;DHT22;690;51.454;7.194;2022-11-21T12:57:07;10.70;99.90
1391;DHT22;690;51.454;7.194;2022-11-21T12:59:46;10.70;99.90
1391;DHT22;690;51.454;7.194;2022-11-21T13:05:10;10.80;99.90
1391;DHT22;690;51.454;7.194;2022-11-21T13:07:39;10.80;99.90
1391;DHT22;690;51.454;7.194;2022-11-21T13:10:11;10.90;99.90
1391;DHT22;690;51.454;7.194;2022-11-21T13:12:44;10.90;99.90
1391;DHT22;690;51.454;7.194;2022-11-21T13:15:18;10.90;64.30
1391;DHT22;690;51.454;7.194;2022-11-21T13:17:50;10.90;5.10
1391;DHT22;690;51.454;7.194;2022-11-21T13:20:23;10.90;1.00
1391;DHT22;690;51.454;7.194;2022-11-21T13:22:54;11.00;1.00
1391;DHT22;690;51.454;7.194;2022-11-21T13:25:43;11.00;1.00
1391;DHT22;690;51.454;7.194;2022-11-21T13:28:36;11.00;1.00
1391;DHT22;690;51.454;7.194;2022-11-21T13:31:26;11.00;1.00
1391;DHT22;690;51.454;7.194;2022-11-21T13:33:53;11.00;1.00
1391;DHT22;690;51.454;7.194;2022-11-21T13:36:39;10.90;1.00
1391;DHT22;690;51.454;7.194;2022-11-21T13:39:34;10.90;1.00
1391;DHT22;690;51.454;7.194;2022-11-21T13:42:14;10.90;99.90
1391;DHT22;690;51.454;7.194;2022-11-21T13:51:46;10.90;99.90
1391;DHT22;690;51.454;7.194;2022-11-21T13:54:36;10.90;99.90
1391;DHT22;690;51.454;7.194;2022-11-21T13:57:20;10.90;35.80
1391;DHT22;690;51.454;7.194;2022-11-21T14:03:15;11.00;1.00
1391;DHT22;690;51.454;7.194;2022-11-21T14:06:02;11.00;1.00
1391;DHT22;690;51.454;7.194;2022-11-21T14:08:30;11.00;1.00
1391;DHT22;690;51.454;7.194;2022-11-21T14:10:58;10.90;99.90
1391;DHT22;690;51.454;7.194;2022-11-21T14:13:46;10.90;99.90
1391;DHT22;690;51.454;7.194;2022-11-21T14:16:23;10.90;99.90
1391;DHT22;690;51.454;7.194;2022-11-21T14:18:54;10.90;3.80
1391;DHT22;690;51.454;7.194;2022-11-21T14:21:24;10.80;1.00
1391;DHT22;690;51.454;7.194;2022-11-21T14:23:53;10.80;35.80
1391;DHT22;690;51.454;7.194;2022-11-21T14:26:22;10.80;1.00
1391;DHT22;690;51.454;7.194;2022-11-21T14:28:51;10.80;1.00
1391;DHT22;690;51.454;7.194;2022-11-21T14:31:18;10.70;1.00
1391;DHT22;690;51.454;7.194;2022-11-21T14:33:45;10.60;1.00
1391;DHT22;690;51.454;7.194;2022-11-21T14:36:14;10.60;1.00
1391;DHT22;690;51.454;7.194;2022-11-21T14:38:44;10.50;1.00
1391;DHT22;690;51.454;7.194;2022-11-21T14:41:24;10.50;1.00
1391;DHT22;690;51.454;7.194;2022-11-21T14:44:02;10.50;99.90
1391;DHT22;690;51.454;7.194;2022-11-21T14:46:30;10.50;99.90
1391;DHT22;690;51.454;7.194;2022-11-21T14:49:15;10.40;99.90
1391;DHT22;690;51.454;7.194;2022-11-21T14:51:45;10.30;99.90
1391;DHT22;690;51.454;7.194;2022-11-21T14:54:15;10.20;99.90
1391;DHT22;690;51.454;7.194;2022-11-21T14:56:46;10.10;47.40
1391;DHT22;690;51.454;7.194;2022-11-21T14:59:20;10.00;1.00
1391;DHT22;690;51.454;7.194;2022-11-21T15:01:55;9.90;14.60
1391;DHT22;690;51.454;7.194;2022-11-21T15:04:27;9.80;47.90
1391;DHT22;690;51.454;7.194;2022-11-21T15:06:54;9.70;1.00
1391;DHT22;690;51.454;7.194;2022-11-21T15:09:21;9.70;1.00
1391;DHT22;690;51.454;7.194;2022-11-21T15:11:50;9.60;1.00
1391;DHT22;690;51.454;7.194;2022-11-21T15:14:22;9.50;1.00
1391;DHT22;690;51.454;7.194;2022-11-21T15:16:53;9.40;1.00
1391;DHT22;690;51.454;7.194;2022-11-21T15:19:22;9.30;87.60
1391;DHT22;690;51.454;7.194;2022-11-21T15:21:50;9.30;99.90
1391;DHT22;690;51.454;7.194;2022-11-21T15:24:28;9.20;11.40
1391;DHT22;690;51.454;7.194;2022-11-21T15:26:55;9.20;1.00
1391;DHT22;690;51.454;7.194;2022-11-21T15:29:23;9.00;1.00
1391;DHT22;690;51.454;7.194;2022-11-21T15:32:06;9.00;33.60
1391;DHT22;690;51.454;7.194;2022-11-21T15:34:33;8.90;73.30
1391;DHT22;690;51.454;7.194;2022-11-21T15:37:02;8.80;99.90
1391;DHT22;690;51.454;7.194;2022-11-21T15:39:30;8.70;99.90
1391;DHT22;690;51.454;7.194;2022-11-21T15:45:01;8.70;99.90
1391;DHT22;690;51.454;7.194;2022-11-21T15:47:29;8.60;99.90
1391;DHT22;690;51.454;7.194;2022-11-21T15:49:56;8.60;99.90
1391;DHT22;690;51.454;7.194;2022-11-21T15:52:23;8.50;99.90
1391;DHT22;690;51.454;7.194;2022-11-21T15:54:50;8.50;1.00
1391;DHT22;690;51.454;7.194;2022-11-21T15:57:16;8.40;1.00
1391;DHT22;690;51.454;7.194;2022-11-21T15:59:44;8.40;1.00
1391;DHT22;690;51.454;7.194;2022-11-21T16:02:13;8.40;1.00
1391;DHT22;690;51.454;7.194;2022-11-21T16:04:40;8.30;1.00
1391;DHT22;690;51.454;7.194;2022-11-21T16:07:07;8.30;7.50
1391;DHT22;690;51.454;7.194;2022-11-21T16:09:34;8.20;35.10
1391;DHT22;690;51.454;7.194;2022-11-21T16:12:02;8.20;99.90
1391;DHT22;690;51.454;7.194;2022-11-21T16:14:29;8.20;99.90
1391;DHT22;690;51.454;7.194;2022-11-21T16:16:56;8.20;99.90
1391;DHT22;690;51.454;7.194;2022-11-21T16:19:24;8.20;83.70
1391;DHT22;690;51.454;7.194;2022-11-21T16:21:51;8.20;99.90
1391;DHT22;690;51.454;7.194;2022-11-21T16:24:18;8.20;25.50
1391;DHT22;690;51.454;7.194;2022-11-21T16:26:45;8.20;1.00
1391;DHT22;690;51.454;7.194;2022-11-21T16:29:13;8.20;1.00
1391;DHT22;690;51.454;7.194;2022-11-21T16:31:40;8.20;1.00
1391;DHT22;690;51.454;7.194;2022-11-21T16:34:07;8.20;1.00
1391;DHT22;690;51.454;7.194;2022-11-21T16:36:35;8.20;52.20
1391;DHT22;690;51.454;7.194;2022-11-21T16:39:03;8.10;75.90
1391;DHT22;690;51.454;7.194;2022-11-21T16:41:30;8.10;99.90
1391;DHT22;690;51.454;7.194;2022-11-21T16:43:56;8.20;99.90
1391;DHT22;690;51.454;7.194;2022-11-21T16:46:24;8.20;61.50
1391;DHT22;690;51.454;7.194;2022-11-21T16:48:57;8.20;1.00
1391;DHT22;690;51.454;7.194;2022-11-21T16:51:24;8.30;1.00
1391;DHT22;690;51.454;7.194;2022-11-21T16:53:53;8.30;1.00
1391;DHT22;690;51.454;7.194;2022-11-21T16:56:20;8.30;1.00
1391;DHT22;690;51.454;7.194;2022-11-21T16:58:46;8.40;1.00
1391;DHT22;690;51.454;7.194;2022-11-21T17:01:16;8.40;1.00
1391;DHT22;690;51.454;7.194;2022-11-21T17:03:45;8.40;99.90
1391;DHT22;690;51.454;7.194;2022-11-21T17:06:13;8.40;99.90
1391;DHT22;690;51.454;7.194;2022-11-21T17:08:40;8.40;99.90
1391;DHT22;690;51.454;7.194;2022-11-21T17:11:13;8.50;99.90
1391;DHT22;690;51.454;7.194;2022-11-21T17:13:40;8.50;99.90
1391;DHT22;690;51.454;7.194;2022-11-21T17:16:09;8.50;99.90
1391;DHT22;690;51.454;7.194;2022-11-21T17:18:36;8.50;99.90